Time;durP1;ratioP1;P1;durP2;ratioP2;P2;SDS_P1;SDS_P2;PMS_P1;PMS_P2;Temp;Humidity;BMP_temperature;BMP_pressure;BME280_temperature;BME280_humidity;BME280_pressure;Samples;Min_cycle;Max_cycle;Signal;HPM_P1;HPM_P2
2022/07/03 00:01:38;;;;;;;0.83;0.83;;;;;;;15.86;69.92;101630.81;5055630;28;20025;-83
2022/07/03 00:04:03;;;;;;;1.00;1.00;;;;;;;15.88;70.00;101636.88;5055736;28;20021;-84
2022/07/03 00:06:31;;;;;;;1.40;1.30;;;;;;;15.85;69.77;101632.56;5054851;28;20508;-83
2022/07/03 00:09:02;;;;;;;1.10;1.00;;;;;;;15.83;70.21;101636.94;5054953;28;20068;-83
2022/07/03 00:11:27;;;;;;;1.05;1.05;;;;;;;15.80;70.08;101644.03;5055648;28;20105;-84
2022/07/03 00:13:52;;;;;;;1.37;1.37;;;;;;;15.75;70.23;101639.75;5054532;28;20436;-83
2022/07/03 00:16:18;;;;;;;1.13;1.10;;;;;;;15.71;70.21;101643.31;5055474;28;20021;-83
2022/07/03 00:18:43;;;;;;;1.27;1.20;;;;;;;15.69;70.43;101636.41;5054285;28;20056;-83
2022/07/03 00:21:11;;;;;;;1.30;1.20;;;;;;;15.68;70.10;101647.78;5055346;28;20024;-83
2022/07/03 00:23:48;;;;;;;1.25;1.25;;;;;;;15.67;70.60;101648.66;5055039;28;20021;-84
2022/07/03 00:26:18;;;;;;;1.40;1.30;;;;;;;15.64;70.83;101664.47;5053695;28;20469;-83
2022/07/03 00:28:45;;;;;;;1.40;1.30;;;;;;;15.59;72.38;101670.66;5069084;28;20032;-83
2022/07/03 00:31:11;;;;;;;;;;;;;;;15.52;72.56;101676.06;5075576;28;20465;-84
2022/07/03 00:33:37;;;;;;;1.20;1.20;;;;;;;15.44;72.75;101674.47;5074336;28;19920;-83
2022/07/03 00:36:03;;;;;;;1.27;1.23;;;;;;;15.40;73.79;101679.81;5074775;28;20020;-83
2022/07/03 00:38:28;;;;;;;1.20;1.20;;;;;;;15.37;73.08;101682.50;5075299;28;20020;-83
2022/07/03 00:40:54;;;;;;;1.40;1.30;;;;;;;15.30;72.32;101666.06;5073801;28;20036;-82
2022/07/03 00:43:21;;;;;;;0.93;0.93;;;;;;;15.38;72.18;101679.84;5061997;28;20037;-84
2022/07/03 00:45:48;;;;;;;1.10;1.10;;;;;;;15.33;71.81;101666.00;5054732;28;20029;-83
2022/07/03 00:48:16;;;;;;;0.90;0.90;;;;;;;15.40;72.27;101674.59;5054057;28;20024;-83
2022/07/03 00:50:47;;;;;;;1.27;1.23;;;;;;;15.38;71.70;101674.59;5054667;28;20029;-83
2022/07/03 00:53:17;;;;;;;1.20;1.20;;;;;;;15.37;71.71;101679.88;5054759;28;20029;-83
2022/07/03 00:55:46;;;;;;;1.33;1.23;;;;;;;15.33;71.42;101667.75;5066969;28;20099;-83
2022/07/03 00:58:15;;;;;;;1.40;1.40;;;;;;;15.25;71.65;101665.34;5074535;28;20074;-83
2022/07/03 01:00:41;;;;;;;1.10;1.10;;;;;;;15.27;71.45;101669.63;5073936;28;20029;-83
2022/07/03 01:03:13;;;;;;;1.10;1.10;;;;;;;15.21;71.50;101668.91;5073774;28;20081;-83
2022/07/03 01:05:42;;;;;;;1.77;1.67;;;;;;;15.20;71.62;101672.41;5074474;28;20032;-83
2022/07/03 01:08:21;;;;;;;1.60;1.50;;;;;;;15.18;71.62;101669.81;5073939;28;20143;-83
2022/07/03 01:11:14;;;;;;;1.60;1.50;;;;;;;15.14;71.61;101679.47;5074029;28;20020;-83
2022/07/03 01:13:55;;;;;;;1.58;1.48;;;;;;;15.09;72.15;101668.25;5074311;28;20040;-83
2022/07/03 01:16:45;;;;;;;1.50;1.40;;;;;;;15.09;72.02;101673.50;5073459;28;20029;-84
2022/07/03 01:19:30;;;;;;;1.80;1.70;;;;;;;15.08;71.91;101668.31;5070866;28;20392;-84
2022/07/03 01:22:14;;;;;;;1.60;1.50;;;;;;;15.07;72.05;101677.03;5053859;28;20037;-83
2022/07/03 01:24:51;;;;;;;1.70;1.60;;;;;;;15.04;71.85;101684.94;5053731;28;20064;-83
2022/07/03 01:27:27;;;;;;;1.80;1.70;;;;;;;15.00;72.17;101684.13;5054305;28;20435;-83
2022/07/03 01:30:12;;;;;;;1.80;1.70;;;;;;;14.96;72.37;101682.47;5052547;28;20017;-82
2022/07/03 01:32:41;;;;;;;1.60;1.50;;;;;;;14.91;72.22;101682.56;5073294;28;20032;-83
2022/07/03 01:35:08;;;;;;;1.50;1.50;;;;;;;14.89;73.06;101680.88;5074058;28;20078;-83
2022/07/03 01:37:34;;;;;;;;;;;;;;;14.85;72.57;101677.47;5072986;28;20035;-83
2022/07/03 01:40:03;;;;;;;1.70;1.60;;;;;;;14.82;72.37;101681.00;5062194;28;19974;-83
2022/07/03 01:42:32;;;;;;;1.75;1.65;;;;;;;14.78;72.69;101670.63;5078228;28;20032;-83
2022/07/03 01:44:59;;;;;;;1.90;1.80;;;;;;;14.79;72.28;101664.50;5093265;28;20032;-83
2022/07/03 01:47:25;;;;;;;1.70;1.60;;;;;;;14.73;72.42;101662.88;5094088;28;20358;-83
2022/07/03 01:49:53;;;;;;;1.60;1.50;;;;;;;14.76;72.55;101670.66;5079939;28;20477;-83
2022/07/03 01:52:20;;;;;;;1.92;1.75;;;;;;;14.74;72.54;101680.28;5072953;28;20032;-83
2022/07/03 01:54:47;;;;;;;;;;;;;;;14.72;72.49;101682.06;5073201;28;20029;-83
2022/07/03 01:57:12;;;;;;;;;;;;;;;14.68;72.52;101675.19;5073136;28;19967;-84
2022/07/03 01:59:37;;;;;;;1.90;1.80;;;;;;;14.66;72.59;101671.72;5083215;28;20349;-83
2022/07/03 02:02:27;;;;;;;1.83;1.73;;;;;;;14.62;72.40;101672.66;5093789;28;20564;-83
2022/07/03 02:05:04;;;;;;;1.80;1.70;;;;;;;14.61;72.70;101679.63;5092538;28;20078;-83
2022/07/03 02:07:39;;;;;;;;;;;;;;;14.60;72.48;101670.06;5093692;28;20036;-83
2022/07/03 02:10:07;;;;;;;1.95;1.85;;;;;;;14.54;72.47;101662.34;5093424;28;19912;-84
2022/07/03 02:12:57;;;;;;;2.45;1.80;;;;;;;14.52;72.83;101657.16;5092565;28;20490;-83
2022/07/03 02:15:34;;;;;;;1.90;1.73;;;;;;;14.55;72.68;101660.59;5093312;28;20111;-83
2022/07/03 02:18:10;;;;;;;1.92;1.83;;;;;;;14.52;72.77;101649.31;5074295;28;20024;-83
2022/07/03 02:20:40;;;;;;;1.90;1.80;;;;;;;14.52;72.80;101666.75;5060545;28;20024;-83
2022/07/03 02:23:08;;;;;;;1.90;1.80;;;;;;;14.48;72.88;101654.63;5073165;28;20024;-83
2022/07/03 02:25:39;;;;;;;2.00;1.90;;;;;;;14.47;72.66;101653.75;5072502;28;20050;-83
2022/07/03 02:28:24;;;;;;;2.00;1.80;;;;;;;14.44;73.10;101653.84;5073020;28;20392;-83
2022/07/03 02:30:57;;;;;;;1.90;1.80;;;;;;;14.41;72.92;101650.41;5072805;28;20432;-83
2022/07/03 02:33:26;;;;;;;2.25;1.90;;;;;;;14.40;72.97;101656.53;5072209;28;20039;-83
2022/07/03 02:35:54;;;;;;;1.90;1.80;;;;;;;14.33;72.93;101653.16;5072582;28;20028;-83
2022/07/03 02:38:20;;;;;;;1.90;1.80;;;;;;;14.34;73.10;101660.97;5073030;28;20472;-84
2022/07/03 02:40:54;;;;;;;2.17;1.80;;;;;;;14.33;73.27;101661.84;5071570;28;20033;-83
2022/07/03 02:43:43;;;;;;;2.40;1.80;;;;;;;14.31;73.19;101671.44;5053250;28;20095;-84
2022/07/03 02:46:48;;;;;;;1.90;1.80;;;;;;;14.27;73.24;101666.31;5046767;28;20079;-84
2022/07/03 02:49:29;;;;;;;1.95;1.85;;;;;;;14.20;73.67;101662.94;5071729;28;20029;-83
2022/07/03 02:52:26;;;;;;;2.28;1.80;;;;;;;14.15;73.40;101665.63;5072490;28;20024;-83
2022/07/03 02:54:54;;;;;;;2.03;1.88;;;;;;;14.12;73.61;101664.84;5065568;28;20063;-83
2022/07/03 02:57:22;;;;;;;2.20;2.00;;;;;;;14.10;73.61;101664.88;5070468;28;20069;-84
2022/07/03 02:59:55;;;;;;;2.00;1.90;;;;;;;14.07;73.94;101662.31;5072068;28;20025;-83
2022/07/03 03:02:56;;;;;;;2.10;1.90;;;;;;;14.03;73.52;101653.66;5071811;28;20032;-83
2022/07/03 03:05:34;;;;;;;2.00;1.90;;;;;;;13.98;73.79;101652.03;5057169;28;20051;-83
2022/07/03 03:08:15;;;;;;;2.83;1.98;;;;;;;13.97;73.55;101655.53;5051243;28;20025;-83
2022/07/03 03:10:40;;;;;;;2.40;1.90;;;;;;;13.90;74.09;101649.53;5052368;28;20428;-83
2022/07/03 03:13:09;;;;;;;2.13;1.93;;;;;;;13.88;74.03;101659.13;5051818;28;20055;-83
2022/07/03 03:15:36;;;;;;;2.45;2.00;;;;;;;13.87;74.00;101662.63;5051519;28;20568;-83
2022/07/03 03:18:08;;;;;;;2.17;1.80;;;;;;;13.84;74.17;101660.09;5052352;28;20021;-83
2022/07/03 03:20:35;;;;;;;1.92;1.80;;;;;;;13.80;74.30;101664.47;5052471;28;20053;-83
2022/07/03 03:23:10;;;;;;;2.17;1.95;;;;;;;13.80;74.26;101668.84;5051426;28;20033;-83
2022/07/03 03:25:36;;;;;;;1.85;1.75;;;;;;;13.74;74.50;101665.41;5052390;28;20442;-83
2022/07/03 03:28:02;;;;;;;;;;;;;;;13.73;74.69;101671.56;5052469;28;20024;-82
2022/07/03 03:30:27;;;;;;;2.17;2.03;;;;;;;13.71;74.45;101675.94;5051806;28;20007;-83
2022/07/03 03:32:52;;;;;;;2.30;2.10;;;;;;;13.68;74.33;101669.91;5052126;28;20024;-82
2022/07/03 03:35:18;;;;;;;2.10;2.00;;;;;;;13.67;74.33;101671.63;5052358;28;20025;-83
2022/07/03 03:37:45;;;;;;;2.03;1.93;;;;;;;13.67;74.46;101666.41;5050667;28;20087;-82
2022/07/03 03:40:11;;;;;;;2.00;1.90;;;;;;;13.68;74.48;101670.75;5052174;28;20465;-82
2022/07/03 03:42:37;;;;;;;1.80;1.70;;;;;;;13.69;74.62;101671.59;5076478;28;20484;-82
2022/07/03 03:45:02;;;;;;;1.83;1.70;;;;;;;13.66;74.72;101675.13;5072226;28;20033;-82
2022/07/03 03:47:28;;;;;;;2.03;1.87;;;;;;;13.67;74.62;101676.84;5071922;28;20029;-83
2022/07/03 03:49:53;;;;;;;1.87;1.77;;;;;;;13.66;74.83;101684.69;5071322;28;20028;-82
2022/07/03 03:52:19;;;;;;;1.90;1.70;;;;;;;13.69;74.94;101669.88;5072332;28;20469;-83
2022/07/03 03:54:44;;;;;;;2.07;1.90;;;;;;;13.70;74.95;101675.94;5072163;28;20059;-83
2022/07/03 03:57:23;;;;;;;2.00;1.90;;;;;;;13.72;75.06;101682.88;5071091;28;20041;-82
2022/07/03 03:59:49;;;;;;;2.00;1.90;;;;;;;13.75;74.93;101677.59;5071393;28;20112;-83
2022/07/03 04:02:15;;;;;;;1.87;1.70;;;;;;;13.77;75.04;101680.19;5087705;28;20012;-82
2022/07/03 04:04:41;;;;;;;1.70;1.60;;;;;;;13.80;75.35;101674.06;5091244;28;20472;-83
2022/07/03 04:07:07;;;;;;;1.60;1.50;;;;;;;13.80;74.93;101666.22;5083663;28;20036;-83
2022/07/03 04:09:32;;;;;;;2.42;1.88;;;;;;;13.79;75.07;101667.09;5071873;28;20029;-82
2022/07/03 04:11:58;;;;;;;1.90;1.80;;;;;;;13.81;75.28;101675.78;5082875;28;20488;-82
2022/07/03 04:14:23;;;;;;;1.80;1.70;;;;;;;13.83;75.30;101674.00;5091133;28;20115;-83
2022/07/03 04:16:49;;;;;;;1.90;1.80;;;;;;;13.82;75.33;101662.69;5092808;28;20043;-83
2022/07/03 04:19:14;;;;;;;1.87;1.77;;;;;;;13.78;75.54;101668.00;5095060;28;20028;-83
2022/07/03 04:21:40;;;;;;;2.00;1.80;;;;;;;13.84;75.14;101680.97;5095503;28;20154;-82
2022/07/03 04:24:05;;;;;;;1.53;1.47;;;;;;;13.83;75.63;101679.22;5095779;28;20024;-83
2022/07/03 04:26:31;;;;;;;1.90;1.80;;;;;;;13.83;75.21;101679.22;5094684;28;20028;-83
2022/07/03 04:28:56;;;;;;;2.40;1.60;;;;;;;13.79;76.07;101678.38;5094984;28;20143;-83
2022/07/03 04:31:21;;;;;;;1.57;1.47;;;;;;;13.78;75.74;101678.44;5095411;28;20069;-83
2022/07/03 04:33:47;;;;;;;1.70;1.60;;;;;;;13.75;75.75;101677.59;5094308;28;20031;-83
2022/07/03 04:36:12;;;;;;;1.80;1.70;;;;;;;13.77;76.33;101682.78;5086050;28;20030;-83
2022/07/03 04:38:37;;;;;;;1.73;1.63;;;;;;;13.75;76.40;101688.00;5074615;28;20036;-83
2022/07/03 04:41:02;;;;;;;1.70;1.60;;;;;;;13.80;76.25;101687.09;5074226;28;20017;-83
2022/07/03 04:43:28;;;;;;;1.50;1.40;;;;;;;13.86;76.74;101692.22;5074735;28;20829;-83
2022/07/03 04:45:53;;;;;;;1.33;1.30;;;;;;;13.97;76.31;101692.91;5073881;28;20067;-83
2022/07/03 04:48:18;;;;;;;1.27;1.20;;;;;;;14.04;77.42;101685.84;5075058;28;20119;-83
2022/07/03 04:50:44;;;;;;;1.30;1.20;;;;;;;14.18;77.08;101690.84;5074760;28;20104;-83
2022/07/03 04:53:09;;;;;;;1.50;1.40;;;;;;;14.29;76.41;101699.38;5074032;28;20025;-83
2022/07/03 04:55:34;;;;;;;1.23;1.23;;;;;;;14.39;76.42;101707.03;5074673;28;20437;-83
2022/07/03 04:57:59;;;;;;;1.13;1.10;;;;;;;14.43;76.61;101695.63;5074432;28;20040;-83
2022/07/03 05:00:25;;;;;;;1.27;1.17;;;;;;;14.41;76.04;101695.66;5070156;28;20485;-83
2022/07/03 05:02:53;;;;;;;1.27;1.00;;;;;;;14.50;76.25;101695.50;5054416;28;20025;-83
2022/07/03 05:05:18;;;;;;;1.20;1.17;;;;;;;14.59;76.30;101698.81;5071458;28;20429;-83
2022/07/03 05:07:44;;;;;;;1.73;1.63;;;;;;;14.62;76.62;101699.66;5073535;28;20115;-83
2022/07/03 05:10:10;;;;;;;1.83;1.57;;;;;;;14.63;78.11;101697.88;5074254;28;20066;-83
2022/07/03 05:12:35;;;;;;;1.70;1.60;;;;;;;14.69;76.79;101704.78;5074439;28;20052;-84
2022/07/03 05:15:00;;;;;;;1.40;1.30;;;;;;;14.70;76.25;101701.28;5073214;28;20028;-83
2022/07/03 05:17:26;;;;;;;1.83;1.70;;;;;;;14.73;76.53;101706.47;5074608;28;20031;-83
2022/07/03 05:20:23;;;;;;;1.70;1.60;;;;;;;14.80;75.91;101708.03;5073286;28;20104;-83
2022/07/03 05:22:36;;;;;;;1.40;1.30;;;;;;;14.87;76.67;101712.25;5053233;28;20060;-83
2022/07/03 05:25:02;;;;;;;1.50;1.40;;;;;;;14.91;76.16;101700.00;5054198;28;20021;-84
2022/07/03 05:27:27;;;;;;;1.50;1.40;;;;;;;14.97;76.42;101705.94;5053808;28;20160;-83
2022/07/03 05:29:53;;;;;;;1.60;1.50;;;;;;;14.97;76.14;101708.56;5052614;28;20021;-84
2022/07/03 05:32:18;;;;;;;1.60;1.50;;;;;;;14.95;76.31;101710.38;5054059;28;20043;-84
2022/07/03 05:34:43;;;;;;;1.30;1.30;;;;;;;14.97;76.08;101712.94;5065375;28;20361;-84
2022/07/03 05:37:08;;;;;;;1.07;1.03;;;;;;;14.97;77.45;101710.34;5073118;28;20050;-84
2022/07/03 05:39:34;;;;;;;1.90;1.80;;;;;;;14.98;76.23;101714.66;5073529;28;20524;-83
2022/07/03 05:42:00;;;;;;;3.10;2.30;;;;;;;14.98;77.05;101717.28;5069809;28;20123;-83
2022/07/03 05:44:25;;;;;;;2.45;1.90;;;;;;;14.95;76.61;101717.34;5093484;28;20103;-84
2022/07/03 05:46:51;;;;;;;1.70;1.60;;;;;;;15.00;76.90;101717.25;5093958;28;20111;-84
2022/07/03 05:49:16;;;;;;;2.40;1.70;;;;;;;15.06;77.08;101723.22;5093122;28;20115;-84
2022/07/03 05:51:41;;;;;;;1.90;1.80;;;;;;;15.12;77.16;101722.22;5093624;28;20027;-82
2022/07/03 05:54:08;;;;;;;1.50;1.40;;;;;;;15.16;76.36;101723.91;5093802;28;20028;-88
2022/07/03 05:56:33;;;;;;;1.52;1.42;;;;;;;15.19;76.97;101718.63;5094023;28;20032;-88
2022/07/03 05:59:01;;;;;;;1.50;1.40;;;;;;;15.27;76.47;101716.69;5094368;28;20107;-87
2022/07/03 06:01:26;;;;;;;1.00;1.00;;;;;;;15.34;77.04;101716.56;5075911;28;20028;-87
2022/07/03 06:03:52;;;;;;;1.17;1.07;;;;;;;15.38;77.06;101720.84;5073109;28;20169;-88
2022/07/03 06:06:17;;;;;;;1.10;1.10;;;;;;;15.46;76.34;101726.75;5073654;28;20032;-87
2022/07/03 06:08:42;;;;;;;1.40;1.30;;;;;;;15.58;77.46;101710.78;5072770;28;20056;-88
2022/07/03 06:11:07;;;;;;;1.50;1.40;;;;;;;16.42;78.36;101721.06;5072861;28;20031;-87
2022/07/03 06:13:33;;;;;;;1.17;1.17;;;;;;;18.27;76.45;101725.28;5073391;28;20095;-87
2022/07/03 06:15:58;;;;;;;1.60;1.50;;;;;;;20.28;72.04;101726.59;5072713;28;20056;-86
2022/07/03 06:18:23;;;;;;;1.50;1.40;;;;;;;21.41;67.89;101735.69;5072248;28;20054;-82
2022/07/03 06:20:49;;;;;;;1.10;1.10;;;;;;;21.70;66.35;101733.47;5074079;28;20047;-81
2022/07/03 06:23:14;;;;;;;1.40;1.40;;;;;;;21.61;64.13;101731.28;5069268;28;20020;-81
2022/07/03 06:25:39;;;;;;;1.83;1.73;;;;;;;21.42;63.36;101726.81;5068602;28;20016;-82
2022/07/03 06:28:04;;;;;;;1.50;1.40;;;;;;;21.32;63.30;101725.56;5068608;28;20024;-81
2022/07/03 06:30:30;;;;;;;1.70;1.47;;;;;;;21.09;64.12;101727.47;5070831;28;20032;-82
2022/07/03 06:32:58;;;;;;;1.60;1.50;;;;;;;20.88;62.24;101729.31;5070400;28;20032;-81
2022/07/03 06:35:23;;;;;;;1.52;1.40;;;;;;;20.65;63.71;101731.16;5071280;28;20395;-81
2022/07/03 06:37:48;;;;;;;2.53;1.50;;;;;;;20.74;63.72;101732.53;5070890;28;20025;-82
2022/07/03 06:40:14;;;;;;;1.33;1.23;;;;;;;20.87;63.42;101732.00;5069145;28;20059;-84
2022/07/03 06:42:39;;;;;;;1.70;1.20;;;;;;;21.06;63.39;101735.53;5070694;28;20044;-87
2022/07/03 06:45:05;;;;;;;0.80;0.80;;;;;;;21.21;63.73;101730.47;5071349;28;20047;-85
2022/07/03 06:47:30;;;;;;;1.48;1.35;;;;;;;21.13;62.92;101728.19;5070520;28;20027;-85
2022/07/03 06:49:56;;;;;;;1.40;1.30;;;;;;;21.13;63.06;101729.06;5071190;28;20032;-85
2022/07/03 06:52:21;;;;;;;1.40;1.30;;;;;;;21.28;63.39;101724.84;5070549;28;20384;-85
2022/07/03 06:54:46;;;;;;;2.00;1.40;;;;;;;21.35;63.47;101728.06;5068246;28;20032;-84
2022/07/03 06:57:13;;;;;;;1.80;1.50;;;;;;;21.52;63.31;101734.31;5071092;28;20021;-85
2022/07/03 06:59:38;;;;;;;2.25;1.70;;;;;;;21.61;61.45;101741.84;5070436;28;20397;-85
2022/07/03 07:02:04;;;;;;;1.30;1.20;;;;;;;21.57;62.43;101738.44;5068609;28;20024;-84
2022/07/03 07:04:29;;;;;;;1.67;1.17;;;;;;;21.48;61.97;101735.41;5071240;28;20423;-84
2022/07/03 07:06:55;;;;;;;1.00;1.00;;;;;;;21.53;61.82;101733.38;5070203;28;20020;-85
2022/07/03 07:09:20;;;;;;;2.33;1.40;;;;;;;21.59;62.39;101731.34;5068229;28;20037;-85
2022/07/03 07:11:45;;;;;;;3.57;1.47;;;;;;;21.78;62.94;101725.19;5069459;28;20070;-85
2022/07/03 07:14:11;;;;;;;1.73;1.20;;;;;;;21.84;62.59;101730.16;5070053;28;20497;-84
2022/07/03 07:16:36;;;;;;;2.00;1.40;;;;;;;21.63;62.01;101737.31;5070125;28;20032;-85
2022/07/03 07:19:01;;;;;;;2.23;1.60;;;;;;;21.52;59.41;101737.81;5068466;28;20035;-84
2022/07/03 07:21:27;;;;;;;2.50;1.77;;;;;;;21.62;61.70;101734.78;5068574;28;20037;-85
2022/07/03 07:23:52;;;;;;;2.57;1.50;;;;;;;21.72;58.88;101726.34;5066373;28;20087;-85
2022/07/03 07:26:19;;;;;;;1.70;1.60;;;;;;;21.75;61.46;101735.91;5066384;28;20445;-85
2022/07/03 07:28:45;;;;;;;2.03;1.50;;;;;;;21.90;61.95;101739.56;5067576;28;20033;-85
2022/07/03 07:31:13;;;;;;;1.65;1.33;;;;;;;22.12;59.40;101735.88;5071144;28;20017;-85
2022/07/03 07:33:38;;;;;;;1.92;1.50;;;;;;;22.11;59.86;101742.09;5070406;28;20024;-87
2022/07/03 07:36:04;;;;;;;3.40;1.80;;;;;;;22.11;60.06;101734.16;5069274;28;20025;-90
2022/07/03 07:38:29;;;;;;;1.60;1.50;;;;;;;22.16;60.40;101743.56;5068783;28;20021;-84
2022/07/03 07:40:54;;;;;;;2.87;1.47;;;;;;;22.33;60.86;101749.81;5067307;28;20388;-82
2022/07/03 07:43:20;;;;;;;1.30;1.20;;;;;;;22.37;59.81;101759.28;5056886;28;20045;-85
2022/07/03 07:45:45;;;;;;;1.37;1.20;;;;;;;22.28;61.23;101752.69;5059920;28;20103;-86
2022/07/03 07:48:10;;;;;;;1.20;1.10;;;;;;;22.27;60.42;101758.03;5060953;28;20020;-88
2022/07/03 07:50:36;;;;;;;2.00;1.52;;;;;;;22.22;61.61;101758.25;5058984;28;20496;-87
2022/07/03 07:53:02;;;;;;;1.50;1.40;;;;;;;22.29;61.57;101757.00;5058715;28;20461;-84
2022/07/03 07:55:27;;;;;;;2.00;1.60;;;;;;;22.39;60.92;101744.19;5064012;28;20024;-84
2022/07/03 07:57:52;;;;;;;1.30;1.17;;;;;;;22.51;60.97;101742.75;5060927;28;20166;-84
2022/07/03 08:00:19;;;;;;;3.27;1.40;;;;;;;22.68;60.06;101760.41;5060279;28;20196;-75
2022/07/03 08:05:35;;;;;;;1.58;1.48;;;;;;;22.59;59.71;101751.13;5043364;28;19928;-87
2022/07/03 08:08:19;;;;;;;1.40;1.23;;;;;;;22.63;59.93;101757.97;5061430;28;20028;-84
2022/07/03 08:10:45;;;;;;;1.20;1.10;;;;;;;22.70;58.58;101765.59;5059008;28;20392;-82
2022/07/03 08:13:15;;;;;;;1.17;1.08;;;;;;;22.59;59.31;101763.50;5063934;28;20055;-85
2022/07/03 08:15:46;;;;;;;2.50;1.60;;;;;;;22.55;57.87;101761.97;5040368;28;20404;-84
2022/07/03 08:18:12;;;;;;;0.88;0.82;;;;;;;22.57;58.44;101765.38;5042978;28;20553;-85
2022/07/03 08:20:40;;;;;;;4.30;1.70;;;;;;;22.56;57.67;101764.50;5046701;28;20107;-85
2022/07/03 08:23:05;;;;;;;1.30;1.20;;;;;;;22.58;59.09;101756.50;5058743;28;20032;-85
2022/07/03 08:25:31;;;;;;;1.77;1.50;;;;;;;22.59;58.23;101753.78;5044165;28;20021;-84
2022/07/03 08:28:03;;;;;;;2.45;1.40;;;;;;;22.74;58.67;101767.16;5038152;28;20083;-85
2022/07/03 08:30:28;;;;;;;3.33;1.50;;;;;;;22.75;59.10;101768.84;5045839;28;20544;-86
2022/07/03 08:32:56;;;;;;;2.30;1.80;;;;;;;22.66;56.66;101764.91;5053825;28;20025;-85
2022/07/03 08:35:21;;;;;;;1.85;1.45;;;;;;;22.66;58.49;101757.81;5058596;28;20056;-86
2022/07/03 08:37:50;;;;;;;2.93;1.37;;;;;;;22.74;58.27;101761.88;5062873;28;20028;-85
2022/07/03 08:40:24;;;;;;;1.88;1.20;;;;;;;22.82;58.08;101759.66;5061353;28;20024;-85
2022/07/03 08:42:54;;;;;;;1.20;1.10;;;;;;;22.88;56.42;101761.13;5083388;28;20377;-86
2022/07/03 08:45:21;;;;;;;1.10;1.00;;;;;;;22.94;57.89;101751.06;5094183;28;20024;-85
2022/07/03 08:47:48;;;;;;;1.23;1.10;;;;;;;23.09;54.58;101759.97;5077376;28;20032;-85
2022/07/03 08:50:15;;;;;;;1.98;1.52;;;;;;;23.05;53.45;101754.94;5090346;28;20580;-85
2022/07/03 08:52:55;;;;;;;2.67;1.42;;;;;;;23.01;56.38;101759.56;5081498;28;20036;-85
2022/07/03 08:55:28;;;;;;;2.22;1.40;;;;;;;23.05;56.37;101758.44;5095041;28;20081;-86
2022/07/03 08:58:01;;;;;;;1.55;1.30;;;;;;;23.09;56.51;101764.41;5053603;28;20040;-84
2022/07/03 09:00:26;;;;;;;1.20;1.10;;;;;;;23.13;56.44;101755.38;5054009;28;20063;-85
2022/07/03 09:02:52;;;;;;;0.90;0.90;;;;;;;23.26;55.74;101768.81;5074169;28;20056;-84
2022/07/03 09:05:20;;;;;;;2.13;1.70;;;;;;;23.21;55.21;101763.78;5086014;28;20023;-86
2022/07/03 09:07:46;;;;;;;2.45;1.75;;;;;;;23.15;54.93;101750.84;5084461;28;20036;-86
2022/07/03 09:10:14;;;;;;;2.38;1.50;;;;;;;23.14;54.97;101749.97;5073850;28;20020;-85
2022/07/03 09:12:42;;;;;;;2.80;1.60;;;;;;;23.15;54.68;101750.84;5085424;28;20111;-85
2022/07/03 09:15:13;;;;;;;0.95;0.90;;;;;;;23.32;56.21;101752.63;5073776;28;20029;-85
2022/07/03 09:18:24;;;;;;;0.90;0.90;;;;;;;23.58;56.54;101753.81;5075165;28;20247;-85
2022/07/03 09:21:02;;;;;;;1.15;1.05;;;;;;;23.79;55.74;101748.22;5071997;28;20044;-85
2022/07/03 09:23:36;;;;;;;0.98;0.93;;;;;;;23.96;53.84;101755.25;5069321;28;20166;-87
2022/07/03 09:26:03;;;;;;;1.55;1.40;;;;;;;23.91;53.75;101750.19;5092267;28;20449;-86
2022/07/03 09:28:52;;;;;;;2.15;1.10;;;;;;;23.72;55.13;101752.19;5082948;28;20119;-86
2022/07/03 09:31:24;;;;;;;0.70;0.70;;;;;;;23.81;55.47;101754.31;5063194;28;20040;-86
2022/07/03 09:33:51;;;;;;;1.85;1.25;;;;;;;23.91;54.54;101755.47;5073505;28;20025;-86
2022/07/03 09:36:17;;;;;;;2.10;1.30;;;;;;;23.80;52.26;101757.06;5072237;28;20032;-85
2022/07/03 09:38:45;;;;;;;0.93;0.93;;;;;;;23.72;54.26;101765.44;5077178;28;20404;-85
2022/07/03 09:41:10;;;;;;;1.00;1.00;;;;;;;23.69;54.45;101782.38;5071448;28;20041;-85
2022/07/03 09:43:42;;;;;;;1.10;1.10;;;;;;;23.57;54.97;101772.47;5072180;28;20039;-84
2022/07/03 09:46:32;;;;;;;2.60;2.20;;;;;;;23.27;52.47;101781.13;5071620;28;20032;-84
2022/07/03 09:48:57;;;;;;;1.50;1.40;;;;;;;23.27;55.51;101782.00;5052739;28;20182;-84
2022/07/03 09:51:25;;;;;;;1.73;1.17;;;;;;;23.54;55.25;101780.56;5053758;28;20057;-83
2022/07/03 09:53:58;;;;;;;1.00;1.00;;;;;;;23.77;55.36;101779.25;5067285;28;20103;-84
2022/07/03 09:56:35;;;;;;;0.90;0.90;;;;;;;23.93;54.33;101770.44;5069534;28;20500;-83
2022/07/03 09:59:15;;;;;;;1.63;1.50;;;;;;;24.02;52.45;101768.16;5070763;28;20028;-84
2022/07/03 10:02:07;;;;;;;1.85;1.70;;;;;;;24.08;52.06;101763.44;5072228;28;20033;-85
2022/07/03 10:04:39;;;;;;;1.50;1.40;;;;;;;24.14;53.21;101771.88;5071716;28;20029;-89
2022/07/03 10:07:13;;;;;;;1.40;1.30;;;;;;;24.31;51.56;101764.75;5072883;28;20070;-87
2022/07/03 10:10:07;;;;;;;1.50;1.40;;;;;;;24.41;51.90;101770.34;5072300;28;20060;-86
2022/07/03 10:12:32;;;;;;;1.83;1.30;;;;;;;24.51;53.41;101764.41;5073019;28;20682;-88
2022/07/03 10:15:08;;;;;;;1.90;1.80;;;;;;;24.65;51.76;101771.53;5072434;28;20032;-87
2022/07/03 10:17:34;;;;;;;1.42;1.30;;;;;;;24.77;53.00;101769.13;5073180;28;20411;-89
2022/07/03 10:19:59;;;;;;;2.50;1.50;;;;;;;24.98;51.82;101762.47;5073834;28;20032;-89
2022/07/03 10:22:31;;;;;;;1.70;1.60;;;;;;;25.01;52.66;101766.75;5073495;28;20563;-88
2022/07/03 10:24:59;;;;;;;1.15;1.15;;;;;;;25.14;52.46;101774.81;5052830;28;20124;-89
2022/07/03 10:27:25;;;;;;;2.17;1.50;;;;;;;24.98;50.92;101772.28;5072958;28;20028;-88
2022/07/03 10:30:11;;;;;;;1.13;1.13;;;;;;;24.89;52.21;101781.66;5072770;28;20033;-88
2022/07/03 10:32:39;;;;;;;0.88;0.80;;;;;;;24.81;51.53;101784.75;5073167;28;20029;-87
2022/07/03 10:35:05;;;;;;;0.93;0.85;;;;;;;24.87;49.36;101764.94;5074100;28;20376;-85
2022/07/03 10:37:49;;;;;;;1.50;1.10;;;;;;;25.04;51.82;101777.19;5071234;28;20028;-86
2022/07/03 10:46:12;;;;;;;1.30;1.10;;;;;;;25.63;51.18;101788.59;5072553;28;20178;-85
2022/07/03 10:48:57;;;;;;;0.90;0.90;;;;;;;25.36;50.98;101781.44;5072625;28;20035;-85
2022/07/03 10:51:24;;;;;;;0.90;0.90;;;;;;;25.22;51.51;101780.50;5072872;28;20028;-84
2022/07/03 10:53:49;;;;;;;;;;;;;;;25.17;50.53;101793.19;5072046;28;20477;-86
2022/07/03 10:56:15;;;;;;;1.10;1.05;;;;;;;24.96;48.57;101785.63;5082859;28;19912;-85
2022/07/03 10:59:02;;;;;;;0.93;0.80;;;;;;;24.88;50.86;101787.06;5092241;28;20032;-85
2022/07/03 11:01:32;;;;;;;1.00;1.00;;;;;;;24.75;50.54;101785.16;5091289;28;20035;-84
2022/07/03 11:03:59;;;;;;;1.05;0.90;;;;;;;24.88;49.60;101787.91;5089939;28;20423;-86
2022/07/03 11:06:40;;;;;;;0.60;0.60;;;;;;;25.06;51.20;101775.28;5092116;28;20040;-85
2022/07/03 11:09:05;;;;;;;1.38;0.88;;;;;;;25.01;50.75;101785.34;5092655;28;20160;-85
2022/07/03 11:11:57;;;;;;;0.80;0.80;;;;;;;24.75;50.56;101773.66;5092960;28;20054;-85
2022/07/03 11:14:24;;;;;;;1.38;1.00;;;;;;;24.66;51.34;101783.00;5091138;28;20085;-84
2022/07/03 11:17:19;;;;;;;0.68;0.68;;;;;;;24.56;51.67;101781.84;5092611;28;20459;-84
2022/07/03 11:20:23;;;;;;;0.95;0.80;;;;;;;24.45;50.16;101777.19;5092005;28;20089;-84
2022/07/03 11:22:55;;;;;;;0.65;0.65;;;;;;;24.42;50.77;101772.94;5093232;28;20028;-84
2022/07/03 11:25:25;;;;;;;2.05;1.02;;;;;;;24.69;51.08;101766.94;5083740;28;20107;-85
2022/07/03 11:27:52;;;;;;;1.00;1.00;;;;;;;24.67;47.15;101768.78;5094404;28;20039;-84
2022/07/03 11:30:18;;;;;;;1.48;1.40;;;;;;;24.48;50.41;101759.28;5096614;28;20027;-85
2022/07/03 11:32:52;;;;;;;2.17;1.67;;;;;;;24.34;48.92;101767.19;5094476;28;20028;-85
2022/07/03 11:35:51;;;;;;;1.58;1.30;;;;;;;24.61;51.51;101763.84;5095972;28;20032;-84
2022/07/03 11:38:20;;;;;;;0.80;0.80;;;;;;;24.95;50.98;101756.53;5096393;28;20020;-85
2022/07/03 11:40:51;;;;;;;1.60;1.50;;;;;;;24.97;49.69;101762.59;5096138;28;20020;-85
2022/07/03 11:43:16;;;;;;;1.23;1.20;;;;;;;24.86;50.08;101755.28;5096757;28;20040;-85
2022/07/03 11:45:41;;;;;;;1.40;1.30;;;;;;;24.98;46.62;101757.19;5096601;28;20065;-85
2022/07/03 11:48:13;;;;;;;1.50;1.40;;;;;;;24.96;49.89;101768.84;5096279;28;20380;-85